Time;durP1;ratioP1;P1;durP2;ratioP2;P2;SDS_P1;SDS_P2;PMS_P1;PMS_P2;Temp;Humidity;BMP_temperature;BMP_pressure;BME280_temperature;BME280_humidity;BME280_pressure;Samples;Min_cycle;Max_cycle;Signal;HPM_P1;HPM_P2
2021/06/25 00:00:42;;;;;;;2.87;1.93;;;14.40;99.90;;;;;;5105783;28;20215;-47
2021/06/25 00:03:09;;;;;;;2.63;2.40;;;14.30;99.90;;;;;;5104613;28;20285;-50
2021/06/25 00:05:36;;;;;;;2.80;2.53;;;14.30;99.90;;;;;;5096215;28;20361;-53
2021/06/25 00:08:03;;;;;;;3.27;2.43;;;14.30;99.90;;;;;;5104485;28;20197;-47
2021/06/25 00:10:31;;;;;;;3.83;2.87;;;14.30;99.90;;;;;;5088476;28;20423;-47
2021/06/25 00:12:58;;;;;;;4.73;3.33;;;14.30;99.90;;;;;;5105605;28;20680;-47
2021/06/25 00:15:24;;;;;;;3.90;3.10;;;14.20;99.90;;;;;;5100931;28;20299;-46
2021/06/25 00:17:52;;;;;;;7.53;3.93;;;14.10;99.90;;;;;;5106818;28;20185;-47
2021/06/25 00:20:19;;;;;;;4.17;3.47;;;14.00;99.90;;;;;;5101862;28;20213;-46
2021/06/25 00:22:47;;;;;;;2.63;2.23;;;14.00;99.90;;;;;;5105309;28;20206;-47
2021/06/25 00:25:13;;;;;;;4.43;3.40;;;13.90;99.90;;;;;;5090339;28;20195;-47
2021/06/25 00:27:41;;;;;;;3.70;2.60;;;13.90;99.90;;;;;;5103047;28;20208;-46
2021/06/25 00:30:09;;;;;;;3.83;2.70;;;13.90;99.90;;;;;;5102460;28;20286;-49
2021/06/25 00:32:36;;;;;;;4.13;2.90;;;13.90;99.90;;;;;;5103648;28;20193;-46
2021/06/25 00:35:03;;;;;;;3.83;3.07;;;13.90;99.90;;;;;;5097733;28;20244;-48
2021/06/25 00:37:30;;;;;;;4.83;2.87;;;13.80;99.90;;;;;;5102351;28;20197;-45
2021/06/25 00:39:57;;;;;;;4.37;2.97;;;13.70;99.90;;;;;;5104827;28;20220;-47
2021/06/25 00:42:23;;;;;;;3.87;3.50;;;13.60;99.90;;;;;;5086730;28;20231;-50
2021/06/25 00:44:51;;;;;;;4.97;3.20;;;13.60;99.90;;;;;;5105018;28;20684;-46
2021/06/25 00:47:18;;;;;;;3.50;3.20;;;13.60;99.90;;;;;;5100482;28;20457;-46
2021/06/25 00:49:45;;;;;;;5.13;4.23;;;13.60;99.90;;;;;;5104544;28;20231;-47
2021/06/25 00:52:17;;;;;;;4.70;3.70;;;13.60;99.90;;;;;;5083260;28;20684;-47
2021/06/25 00:54:44;;;;;;;5.17;4.67;;;13.60;99.90;;;;;;5104670;28;20296;-47
2021/06/25 00:57:13;;;;;;;6.83;4.33;;;13.60;99.90;;;;;;5087113;28;20210;-46
2021/06/25 00:59:40;;;;;;;4.90;4.50;;;13.50;99.90;;;;;;5103552;28;20202;-48
2021/06/25 01:02:08;;;;;;;3.97;3.63;;;13.50;99.90;;;;;;5102470;28;20193;-50
2021/06/25 01:04:35;;;;;;;4.87;4.10;;;13.50;99.90;;;;;;5098278;28;20592;-48
2021/06/25 01:07:03;;;;;;;6.37;4.30;;;13.50;99.90;;;;;;5105452;28;20197;-49
2021/06/25 01:09:30;;;;;;;5.63;4.20;;;13.50;99.90;;;;;;5101481;28;20464;-48
2021/06/25 01:11:58;;;;;;;4.37;3.97;;;13.50;99.90;;;;;;5105067;28;20199;-48
2021/06/25 01:14:24;;;;;;;4.90;4.23;;;13.40;99.90;;;;;;5087407;28;20221;-46
2021/06/25 01:16:51;;;;;;;5.43;4.47;;;13.40;99.90;;;;;;5104491;28;20204;-47
2021/06/25 01:19:19;;;;;;;5.03;4.33;;;13.30;99.90;;;;;;5099647;28;20255;-48
2021/06/25 01:21:47;;;;;;;5.50;4.63;;;13.30;99.90;;;;;;5104215;28;20192;-48
2021/06/25 01:24:13;;;;;;;6.47;5.17;;;13.30;99.90;;;;;;5100691;28;20642;-51
2021/06/25 01:26:40;;;;;;;7.90;5.53;;;13.20;99.90;;;;;;5104815;28;20657;-48
2021/06/25 01:29:07;;;;;;;8.50;5.27;;;13.20;99.90;;;;;;5088571;28;20517;-49
2021/06/25 01:31:34;;;;;;;8.60;5.00;;;13.20;99.90;;;;;;5101910;28;20814;-47
2021/06/25 01:34:02;;;;;;;7.20;4.87;;;13.20;99.90;;;;;;5099908;28;20214;-49
2021/06/25 01:36:29;;;;;;;5.83;5.20;;;13.20;99.90;;;;;;5098046;28;20818;-49
2021/06/25 01:38:59;;;;;;;9.57;4.80;;;13.20;99.90;;;;;;5103819;28;20680;-48
2021/06/25 01:41:26;;;;;;;5.17;4.67;;;13.20;99.90;;;;;;5100096;28;20310;-48
2021/06/25 01:43:54;;;;;;;5.93;5.00;;;13.20;99.90;;;;;;5089996;28;20205;-48
2021/06/25 01:46:23;;;;;;;5.93;5.07;;;13.10;99.90;;;;;;5100003;28;20701;-48
2021/06/25 01:48:50;;;;;;;4.40;3.90;;;13.10;99.90;;;;;;5105043;28;20187;-48
2021/06/25 01:51:17;;;;;;;6.13;5.17;;;13.10;99.90;;;;;;5097342;28;20257;-49
2021/06/25 01:53:44;;;;;;;6.17;4.83;;;13.10;99.90;;;;;;5102062;28;20280;-47
2021/06/25 01:56:12;;;;;;;6.37;5.10;;;13.00;99.90;;;;;;5102907;28;20196;-50
2021/06/25 01:58:38;;;;;;;5.97;5.13;;;13.00;99.90;;;;;;5103924;28;20560;-47
2021/06/25 02:01:11;;;;;;;7.43;5.70;;;13.00;99.90;;;;;;5086891;28;20232;-50
2021/06/25 02:03:38;;;;;;;8.50;5.83;;;13.00;99.90;;;;;;5101948;28;20255;-47
2021/06/25 02:06:05;;;;;;;6.00;4.33;;;13.00;99.90;;;;;;5094565;28;20733;-51
2021/06/25 02:08:32;;;;;;;6.43;5.63;;;13.00;99.90;;;;;;5101259;28;20713;-49
2021/06/25 02:10:59;;;;;;;7.60;6.23;;;13.00;99.90;;;;;;5102758;28;20213;-46
2021/06/25 02:13:27;;;;;;;7.60;5.60;;;13.00;99.90;;;;;;5100041;28;20329;-49
2021/06/25 02:15:54;;;;;;;6.80;6.10;;;13.00;99.90;;;;;;5088678;28;20209;-47
2021/06/25 02:18:21;;;;;;;7.60;5.87;;;12.90;99.90;;;;;;5100630;28;20386;-47
2021/06/25 02:20:48;;;;;;;7.23;5.77;;;12.90;99.90;;;;;;5105275;28;20219;-48
2021/06/25 02:23:14;;;;;;;5.53;5.03;;;12.90;99.90;;;;;;5101609;28;20253;-46
2021/06/25 02:25:41;;;;;;;7.07;5.80;;;12.90;99.90;;;;;;5105279;28;20177;-46
2021/06/25 02:28:08;;;;;;;6.97;5.63;;;12.80;99.90;;;;;;5100991;28;20224;-51
2021/06/25 02:30:36;;;;;;;5.83;5.33;;;12.80;99.90;;;;;;5086762;28;20834;-47
2021/06/25 02:33:02;;;;;;;7.17;5.93;;;12.70;99.90;;;;;;5102204;28;20193;-49
2021/06/25 02:35:29;;;;;;;7.03;5.93;;;12.70;99.90;;;;;;5093983;28;20231;-46
2021/06/25 02:37:56;;;;;;;7.47;6.40;;;12.70;99.90;;;;;;5103255;28;20189;-47
2021/06/25 02:40:23;;;;;;;6.57;5.53;;;12.60;99.90;;;;;;5098527;28;20311;-50
2021/06/25 02:42:50;;;;;;;7.47;6.13;;;12.60;99.90;;;;;;5103113;28;20276;-46
2021/06/25 02:45:17;;;;;;;7.10;5.70;;;12.60;99.90;;;;;;5084841;28;20681;-47
2021/06/25 02:47:45;;;;;;;8.03;6.47;;;12.60;99.90;;;;;;5102644;28;20185;-47
2021/06/25 02:50:13;;;;;;;7.97;5.90;;;12.60;99.90;;;;;;5098977;28;20225;-49
2021/06/25 02:52:40;;;;;;;7.13;6.30;;;12.60;99.90;;;;;;5102404;28;20192;-48
2021/06/25 02:55:09;;;;;;;9.13;6.97;;;12.50;99.90;;;;;;5100791;28;20694;-49
2021/06/25 02:57:36;;;;;;;9.20;7.10;;;12.60;99.90;;;;;;5101432;28;20478;-48
2021/06/25 03:00:03;;;;;;;7.57;6.80;;;12.50;99.90;;;;;;5097480;28;20211;-50
2021/06/25 03:02:30;;;;;;;11.50;6.23;;;12.50;99.90;;;;;;5092188;28;20211;-46
2021/06/25 03:04:58;;;;;;;8.00;6.50;;;12.40;99.90;;;;;;5096708;28;20567;-47
2021/06/25 03:07:25;;;;;;;9.33;6.37;;;12.40;99.90;;;;;;5098785;28;20279;-47
2021/06/25 03:09:51;;;;;;;11.07;7.07;;;12.40;99.90;;;;;;5102884;28;20583;-50
2021/06/25 03:12:18;;;;;;;7.60;6.20;;;12.40;99.90;;;;;;5099280;28;20402;-49
2021/06/25 03:14:44;;;;;;;9.30;6.60;;;12.30;99.90;;;;;;5103366;28;20220;-48
2021/06/25 03:17:11;;;;;;;10.73;6.83;;;12.40;99.90;;;;;;5085336;28;20206;-50
2021/06/25 03:19:38;;;;;;;8.63;6.03;;;12.40;99.90;;;;;;5101446;28;20717;-47
2021/06/25 03:22:06;;;;;;;8.17;6.53;;;12.40;99.90;;;;;;5104504;28;20194;-51
2021/06/25 03:24:33;;;;;;;7.87;6.90;;;12.30;99.90;;;;;;5104997;28;20381;-48
2021/06/25 03:27:00;;;;;;;9.77;6.73;;;12.30;99.90;;;;;;5105625;28;20198;-48
2021/06/25 03:29:27;;;;;;;10.07;7.20;;;12.20;99.90;;;;;;5101401;28;21554;-50
2021/06/25 03:31:53;;;;;;;11.83;7.27;;;12.20;99.90;;;;;;5098444;28;20205;-46
2021/06/25 03:34:20;;;;;;;10.23;7.83;;;12.20;99.90;;;;;;5087573;28;20751;-49
2021/06/25 03:36:47;;;;;;;8.83;7.43;;;12.20;99.90;;;;;;5088555;28;20194;-48
2021/06/25 03:39:16;;;;;;;8.03;7.17;;;12.20;99.90;;;;;;5081901;28;20209;-51
2021/06/25 03:41:42;;;;;;;8.70;6.80;;;12.10;99.90;;;;;;5085999;28;20190;-47
2021/06/25 03:44:09;;;;;;;8.90;6.83;;;12.10;99.90;;;;;;5084657;28;20197;-48
2021/06/25 03:46:36;;;;;;;8.37;6.50;;;12.10;99.90;;;;;;5084374;28;20737;-46
2021/06/25 03:49:02;;;;;;;8.17;6.07;;;12.10;99.90;;;;;;5060978;28;20665;-50
2021/06/25 03:51:29;;;;;;;9.63;6.87;;;12.20;99.90;;;;;;5103148;28;20225;-46
2021/06/25 03:53:55;;;;;;;7.27;6.40;;;12.20;99.90;;;;;;5087396;28;20216;-47
2021/06/25 03:56:23;;;;;;;9.77;6.33;;;12.20;99.90;;;;;;5101638;28;20446;-46
2021/06/25 03:58:51;;;;;;;7.93;5.87;;;12.20;99.90;;;;;;5105221;28;20549;-47
2021/06/25 04:01:20;;;;;;;8.43;6.20;;;12.20;99.90;;;;;;5094856;28;20243;-47
2021/06/25 04:03:47;;;;;;;9.30;6.67;;;12.20;99.90;;;;;;5106513;28;20196;-48
2021/06/25 04:06:13;;;;;;;8.47;6.10;;;12.20;99.90;;;;;;5090375;28;20688;-47
2021/06/25 04:08:40;;;;;;;7.87;6.03;;;12.20;99.90;;;;;;5106868;28;20228;-47
2021/06/25 04:11:07;;;;;;;8.20;7.00;;;12.20;99.90;;;;;;5103038;28;20689;-49
2021/06/25 04:13:36;;;;;;;6.93;5.93;;;12.20;99.90;;;;;;5103893;28;20375;-47
2021/06/25 04:16:03;;;;;;;7.90;6.70;;;12.30;99.90;;;;;;5103424;28;20300;-49
2021/06/25 04:18:30;;;;;;;11.83;7.87;;;12.30;99.90;;;;;;5103267;28;20216;-45
2021/06/25 04:20:58;;;;;;;12.60;8.00;;;12.40;99.90;;;;;;5091266;28;20705;-48
2021/06/25 04:23:25;;;;;;;10.00;7.57;;;12.40;99.90;;;;;;5103268;28;20185;-46
2021/06/25 04:25:52;;;;;;;10.90;8.37;;;12.50;99.90;;;;;;5105032;28;20193;-46
2021/06/25 04:28:19;;;;;;;9.40;8.33;;;12.50;99.90;;;;;;5100722;28;20224;-48
2021/06/25 04:30:47;;;;;;;11.00;8.10;;;12.60;99.90;;;;;;5098411;28;20294;-46
2021/06/25 04:33:14;;;;;;;12.70;9.57;;;12.60;99.90;;;;;;5100029;28;20204;-46
2021/06/25 04:35:41;;;;;;;12.37;9.60;;;12.60;99.90;;;;;;5091283;28;20237;-46
2021/06/25 04:38:08;;;;;;;11.90;9.27;;;12.70;99.90;;;;;;5102772;28;20196;-46
2021/06/25 04:40:38;;;;;;;9.50;7.70;;;12.70;99.90;;;;;;5105824;28;20215;-50
2021/06/25 04:43:06;;;;;;;11.67;8.43;;;12.80;99.90;;;;;;5099275;28;20201;-48
2021/06/25 04:45:34;;;;;;;13.53;9.90;;;12.80;99.90;;;;;;5103407;28;20291;-47
2021/06/25 04:48:02;;;;;;;13.33;10.27;;;12.80;99.90;;;;;;5098603;28;20204;-47
2021/06/25 04:50:29;;;;;;;14.20;9.53;;;12.80;99.90;;;;;;5087716;28;20504;-47
2021/06/25 04:52:55;;;;;;;12.73;9.47;;;12.90;99.90;;;;;;5104351;28;20207;-48
2021/06/25 04:55:22;;;;;;;13.83;9.83;;;12.90;99.90;;;;;;5100585;28;20221;-46
2021/06/25 04:57:53;;;;;;;17.47;10.10;;;12.90;99.90;;;;;;5104791;28;20203;-48
2021/06/25 05:00:21;;;;;;;15.27;10.63;;;13.00;99.90;;;;;;5094014;28;20606;-45
2021/06/25 05:02:48;;;;;;;14.43;10.30;;;13.00;99.90;;;;;;5096360;28;20637;-46
2021/06/25 05:05:17;;;;;;;14.47;10.47;;;13.10;99.90;;;;;;5082579;28;20208;-47
2021/06/25 05:07:44;;;;;;;12.93;10.63;;;13.10;99.90;;;;;;5104157;28;20217;-46
2021/06/25 05:10:12;;;;;;;15.17;10.70;;;13.20;99.90;;;;;;5101025;28;20300;-49
2021/06/25 05:12:39;;;;;;;15.17;10.97;;;13.20;99.90;;;;;;5095909;28;20198;-45
2021/06/25 05:15:07;;;;;;;14.03;10.10;;;13.20;99.90;;;;;;5102468;28;20233;-49
2021/06/25 05:17:34;;;;;;;12.60;9.80;;;13.30;99.90;;;;;;5097161;28;20210;-48
2021/06/25 05:20:00;;;;;;;12.37;10.40;;;13.40;99.90;;;;;;5091754;28;20274;-66
2021/06/25 05:22:29;;;;;;;14.57;10.77;;;13.50;99.90;;;;;;5091073;28;20217;-66
2021/06/25 05:24:55;;;;;;;17.70;10.50;;;13.60;99.90;;;;;;5099151;28;20193;-66
2021/06/25 05:27:23;;;;;;;16.03;10.17;;;13.60;99.90;;;;;;5081303;28;20359;-67
2021/06/25 05:29:49;;;;;;;16.17;10.60;;;13.60;99.90;;;;;;5103634;28;20216;-67
2021/06/25 05:32:16;;;;;;;14.97;10.80;;;13.70;99.90;;;;;;5099714;28;20205;-66
2021/06/25 05:34:44;;;;;;;14.70;10.67;;;13.70;99.90;;;;;;5094112;28;20676;-65
2021/06/25 05:37:11;;;;;;;16.20;12.30;;;13.80;99.90;;;;;;5084650;28;20626;-67
2021/06/25 05:39:39;;;;;;;15.40;11.80;;;13.90;99.90;;;;;;5086117;27;20209;-68
2021/06/25 05:42:06;;;;;;;18.00;11.27;;;13.90;99.90;;;;;;5091437;27;20185;-69
2021/06/25 05:44:33;;;;;;;18.33;11.90;;;14.00;99.90;;;;;;5089148;28;20194;-68
2021/06/25 05:47:00;;;;;;;16.50;12.10;;;14.00;99.90;;;;;;5093592;28;20280;-65
2021/06/25 05:49:26;;;;;;;16.10;11.10;;;14.00;99.90;;;;;;5098077;28;20914;-66
2021/06/25 05:51:53;;;;;;;17.43;11.43;;;14.10;99.90;;;;;;5076763;28;20243;-66
2021/06/25 05:54:20;;;;;;;14.57;11.17;;;14.10;99.90;;;;;;5093798;28;21411;-66
2021/06/25 05:56:48;;;;;;;13.37;10.53;;;14.20;99.90;;;;;;5103447;28;20209;-50
2021/06/25 05:59:14;;;;;;;12.80;10.87;;;14.20;99.90;;;;;;5080855;28;20201;-49
2021/06/25 06:01:41;;;;;;;14.03;10.80;;;14.20;99.90;;;;;;5099107;28;20311;-47
2021/06/25 06:04:07;;;;;;;16.90;10.90;;;14.30;99.90;;;;;;5095085;28;20762;-46
2021/06/25 06:06:34;;;;;;;14.13;10.27;;;14.40;99.90;;;;;;5082449;28;20205;-49
2021/06/25 06:09:02;;;;;;;12.27;9.27;;;14.40;99.90;;;;;;5093615;28;20194;-49
2021/06/25 06:11:29;;;;;;;12.30;10.37;;;14.60;99.90;;;;;;5092378;28;20236;-49
2021/06/25 06:13:57;;;;;;;11.70;10.20;;;14.70;99.90;;;;;;5090029;28;20221;-52
2021/06/25 06:16:24;;;;;;;14.90;10.10;;;14.70;99.90;;;;;;5092820;28;20227;-48
2021/06/25 06:18:51;;;;;;;13.77;9.67;;;14.80;99.90;;;;;;5100572;28;20221;-49
2021/06/25 06:21:20;;;;;;;11.23;8.60;;;14.90;99.90;;;;;;5092081;28;20225;-49
2021/06/25 06:32:04;;;;;;;13.13;9.47;;;15.00;99.90;;;;;;5087256;28;20204;-47
2021/06/25 06:34:33;;;;;;;10.97;7.67;;;15.00;99.90;;;;;;5100983;28;20194;-47
2021/06/25 06:37:00;;;;;;;11.87;8.57;;;15.10;99.90;;;;;;5059244;28;20217;-48
2021/06/25 06:39:28;;;;;;;12.20;7.97;;;15.20;99.90;;;;;;5097694;28;20209;-48
2021/06/25 06:41:55;;;;;;;9.37;7.47;;;15.20;99.90;;;;;;5086270;28;20221;-50
2021/06/25 06:44:23;;;;;;;8.63;6.97;;;15.30;99.90;;;;;;5095536;28;20354;-48
2021/06/25 06:46:49;;;;;;;11.87;7.93;;;15.30;99.90;;;;;;5096906;28;20577;-47
2021/06/25 06:49:16;;;;;;;10.07;8.33;;;15.40;99.90;;;;;;5100548;28;20950;-45
2021/06/25 06:51:43;;;;;;;9.53;8.17;;;15.40;99.90;;;;;;5104053;28;20197;-50
2021/06/25 06:54:10;;;;;;;9.30;7.83;;;15.50;99.90;;;;;;5074852;28;20742;-46
2021/06/25 06:56:37;;;;;;;8.97;7.60;;;15.50;99.90;;;;;;5104865;28;20705;-46
2021/06/25 06:59:03;;;;;;;11.30;8.10;;;15.50;99.90;;;;;;5089511;28;20190;-48
2021/06/25 07:01:32;;;;;;;11.23;7.57;;;15.60;99.90;;;;;;5100604;28;20227;-48
2021/06/25 07:03:59;;;;;;;8.90;7.00;;;15.70;99.90;;;;;;5090805;28;20201;-50
2021/06/25 07:06:27;;;;;;;7.77;5.70;;;15.80;99.90;;;;;;5100127;28;20190;-43
2021/06/25 07:08:53;;;;;;;5.80;5.20;;;15.80;99.90;;;;;;5090981;28;20204;-47
2021/06/25 07:11:20;;;;;;;7.67;5.40;;;15.80;99.90;;;;;;5098564;28;20360;-49
2021/06/25 07:13:47;;;;;;;5.10;4.60;;;15.90;99.90;;;;;;5104576;28;20196;-50
2021/06/25 07:16:14;;;;;;;5.17;4.43;;;16.00;99.90;;;;;;5096805;28;20893;-46
2021/06/25 07:18:43;;;;;;;5.60;4.53;;;16.00;99.90;;;;;;5097186;28;20205;-50
2021/06/25 07:21:10;;;;;;;6.87;4.40;;;16.00;99.90;;;;;;5098092;28;20501;-46
2021/06/25 07:23:37;;;;;;;5.97;3.97;;;16.10;99.90;;;;;;5100127;28;20514;-45
2021/06/25 07:26:04;;;;;;;4.07;3.23;;;16.10;99.90;;;;;;5087944;28;20254;-48
2021/06/25 07:28:31;;;;;;;4.23;3.83;;;16.30;99.90;;;;;;5106308;28;20200;-48
2021/06/25 07:30:57;;;;;;;4.37;3.00;;;16.30;99.90;;;;;;5097243;28;20250;-51
2021/06/25 07:33:24;;;;;;;5.13;2.60;;;16.40;99.90;;;;;;5096930;28;20205;-49
2021/06/25 07:35:53;;;;;;;3.67;2.60;;;16.50;99.90;;;;;;5090857;28;20244;-47
2021/06/25 07:38:20;;;;;;;2.97;2.67;;;16.50;99.90;;;;;;5096287;28;20240;-47
2021/06/25 07:40:46;;;;;;;3.67;2.37;;;16.50;99.90;;;;;;5080171;28;20752;-46
2021/06/25 07:43:13;;;;;;;2.03;1.93;;;16.50;99.90;;;;;;5102159;28;20272;-49
2021/06/25 07:45:40;;;;;;;4.80;3.10;;;16.60;99.90;;;;;;5098585;27;20205;-45
2021/06/25 07:48:08;;;;;;;3.83;3.43;;;16.60;99.90;;;;;;5078066;28;20185;-46
2021/06/25 07:50:34;;;;;;;3.93;3.20;;;16.60;99.90;;;;;;5082995;28;20221;-46
2021/06/25 07:53:06;;;;;;;5.03;3.67;;;16.60;99.90;;;;;;5097131;28;20204;-47
2021/06/25 07:55:33;;;;;;;7.73;3.77;;;16.60;99.90;;;;;;5101256;28;20654;-44
2021/06/25 07:57:59;;;;;;;4.63;4.10;;;16.70;99.90;;;;;;5087957;28;20216;-50
2021/06/25 08:00:26;;;;;;;4.40;3.73;;;16.70;99.90;;;;;;5094943;28;20225;-47
2021/06/25 08:02:53;;;;;;;3.50;3.20;;;16.70;99.90;;;;;;5097183;28;20193;-45
2021/06/25 08:05:19;;;;;;;3.27;2.97;;;16.80;99.90;;;;;;5098740;28;20430;-47
2021/06/25 08:07:46;;;;;;;4.33;3.17;;;16.70;99.90;;;;;;5100019;28;20276;-53
2021/06/25 08:10:14;;;;;;;3.10;2.80;;;16.70;99.90;;;;;;5097364;28;20227;-49
2021/06/25 08:12:40;;;;;;;4.43;4.00;;;16.70;99.90;;;;;;5087467;28;20197;-46
2021/06/25 08:15:08;;;;;;;4.80;3.20;;;16.80;99.90;;;;;;5101259;28;20182;-50
2021/06/25 08:17:35;;;;;;;5.90;3.77;;;16.90;99.90;;;;;;5098343;28;20580;-47
2021/06/25 08:20:02;;;;;;;6.63;4.23;;;17.00;99.90;;;;;;5097096;28;20300;-46
2021/06/25 08:22:28;;;;;;;6.23;3.97;;;17.10;99.90;;;;;;5096945;28;20193;-49
2021/06/25 08:24:55;;;;;;;4.30;3.90;;;17.20;99.90;;;;;;5098786;28;20713;-48
2021/06/25 08:27:23;;;;;;;4.73;4.33;;;17.30;99.90;;;;;;5085771;28;20224;-51
2021/06/25 08:29:50;;;;;;;5.30;4.20;;;17.30;99.90;;;;;;5098694;28;20763;-47
2021/06/25 08:32:17;;;;;;;5.37;3.90;;;17.30;99.90;;;;;;5096987;28;20457;-51
2021/06/25 08:34:43;;;;;;;4.10;3.70;;;17.30;99.90;;;;;;5107158;28;20207;-50
2021/06/25 08:37:10;;;;;;;5.07;3.63;;;17.50;99.90;;;;;;5097785;28;20248;-46
2021/06/25 08:39:38;;;;;;;3.77;3.47;;;17.60;99.90;;;;;;5101603;28;20233;-46
2021/06/25 08:42:06;;;;;;;6.23;4.40;;;17.70;99.90;;;;;;5095003;28;20282;-46
2021/06/25 08:44:35;;;;;;;4.90;4.40;;;17.70;99.90;;;;;;5084268;28;20213;-47
2021/06/25 08:47:02;;;;;;;5.47;3.53;;;17.70;99.90;;;;;;5102355;28;20199;-47
2021/06/25 08:49:29;;;;;;;5.17;4.10;;;17.60;99.90;;;;;;5093728;28;20571;-48
2021/06/25 08:51:57;;;;;;;5.00;4.50;;;17.80;99.90;;;;;;5095195;28;20409;-50
2021/06/25 08:54:23;;;;;;;5.23;4.73;;;17.80;99.90;;;;;;5093364;28;20197;-47
2021/06/25 08:56:50;;;;;;;4.53;4.13;;;17.90;99.90;;;;;;5095205;28;20869;-48
2021/06/25 08:59:19;;;;;;;5.47;4.50;;;18.00;99.90;;;;;;5078017;28;20198;-51
2021/06/25 09:01:49;;;;;;;4.67;3.70;;;18.00;99.90;;;;;;5103051;28;20201;-47
2021/06/25 09:04:33;;;;;;;7.07;4.20;;;17.90;99.90;;;;;;5093268;28;20288;-46
2021/06/25 09:06:59;;;;;;;5.53;4.40;;;18.00;99.90;;;;;;5096852;28;20410;-46
2021/06/25 09:09:38;;;;;;;4.83;4.30;;;18.00;99.90;;;;;;5098381;28;20219;-45
2021/06/25 09:12:11;;;;;;;4.20;3.87;;;18.00;99.90;;;;;;5098995;28;20461;-48
2021/06/25 09:14:58;;;;;;;4.20;3.80;;;18.10;99.90;;;;;;5085305;28;20201;-45
2021/06/25 09:17:27;;;;;;;7.67;3.90;;;18.20;99.90;;;;;;5103543;28;20694;-47
2021/06/25 09:19:54;;;;;;;5.67;4.13;;;18.10;99.90;;;;;;5085976;28;20225;-45
2021/06/25 09:22:20;;;;;;;5.23;4.80;;;18.10;99.90;;;;;;5103355;28;20201;-45
2021/06/25 09:25:04;;;;;;;6.80;5.00;;;18.30;99.90;;;;;;5094928;28;20200;-52
2021/06/25 09:27:32;;;;;;;4.77;4.37;;;18.40;99.90;;;;;;5096505;28;20412;-51
2021/06/25 09:30:05;;;;;;;4.60;4.20;;;18.50;99.90;;;;;;5082735;28;20303;-44
2021/06/25 09:32:37;;;;;;;5.27;4.73;;;18.50;99.90;;;;;;5098821;28;20216;-46
2021/06/25 09:35:17;;;;;;;5.63;4.20;;;18.60;99.90;;;;;;5072816;28;21729;-45
2021/06/25 09:37:45;;;;;;;5.73;4.30;;;18.60;99.90;;;;;;5101067;28;20771;-44
2021/06/25 09:40:14;;;;;;;5.77;4.30;;;18.60;99.90;;;;;;5098465;28;20308;-46
2021/06/25 09:42:43;;;;;;;4.73;4.33;;;18.70;99.90;;;;;;5097971;28;20603;-45
2021/06/25 09:45:12;;;;;;;7.80;4.10;;;18.90;99.90;;;;;;5092765;28;20206;-45
2021/06/25 09:47:42;;;;;;;4.90;4.23;;;18.90;99.90;;;;;;5084756;28;20204;-47
2021/06/25 09:50:12;;;;;;;4.23;3.83;;;18.80;99.90;;;;;;5086646;28;20275;-46
2021/06/25 09:52:50;;;;;;;5.20;4.37;;;19.00;99.90;;;;;;5102348;28;20205;-46
2021/06/25 09:55:18;;;;;;;4.73;4.20;;;19.00;99.90;;;;;;5099509;28;20205;-48
2021/06/25 09:58:35;;;;;;;6.03;4.73;;;19.00;99.90;;;;;;5096905;28;20247;-46
2021/06/25 10:03:51;;;;;;;5.47;3.50;;;19.10;99.90;;;;;;5095005;28;20565;-51
2021/06/25 10:06:19;;;;;;;4.97;4.63;;;19.10;99.90;;;;;;5098743;28;20228;-44
2021/06/25 10:08:46;;;;;;;4.83;3.90;;;19.20;99.90;;;;;;5098951;28;20280;-53
2021/06/25 10:11:15;;;;;;;5.00;4.60;;;19.40;99.90;;;;;;5096925;28;20226;-47
2021/06/25 10:13:43;;;;;;;6.77;4.17;;;19.60;99.60;;;;;;5094728;28;20208;-51
2021/06/25 10:16:11;;;;;;;4.27;3.70;;;19.70;99.20;;;;;;5095785;28;20303;-51
2021/06/25 10:18:39;;;;;;;4.80;4.43;;;19.80;99.10;;;;;;5082967;28;20220;-54
2021/06/25 10:21:09;;;;;;;5.80;5.10;;;20.00;98.30;;;;;;5091430;28;20229;-53
2021/06/25 10:23:37;;;;;;;5.10;4.70;;;19.90;98.40;;;;;;5090439;28;20201;-49
2021/06/25 10:26:11;;;;;;;4.80;4.43;;;19.80;98.30;;;;;;5094371;28;20590;-54
2021/06/25 10:28:39;;;;;;;5.43;5.00;;;19.70;98.40;;;;;;5089908;28;20201;-53
2021/06/25 10:31:07;;;;;;;4.73;4.43;;;19.60;98.30;;;;;;5094877;28;20228;-48
2021/06/25 10:33:34;;;;;;;4.47;4.07;;;19.50;98.50;;;;;;5081059;28;20209;-49
2021/06/25 10:36:03;;;;;;;4.63;4.10;;;19.50;98.90;;;;;;5104629;28;20192;-55
2021/06/25 10:38:32;;;;;;;4.70;4.30;;;19.50;98.60;;;;;;5097226;28;20721;-47
2021/06/25 10:41:00;;;;;;;4.30;3.40;;;19.40;98.50;;;;;;5106043;28;20295;-55
2021/06/25 10:43:41;;;;;;;5.87;4.73;;;19.50;98.70;;;;;;5098568;28;20205;-45
2021/06/25 10:46:36;;;;;;;4.93;4.47;;;19.60;97.80;;;;;;5092127;28;20248;-51
2021/06/25 10:49:13;;;;;;;4.67;4.27;;;19.60;96.90;;;;;;5085694;28;20224;-45
2021/06/25 10:51:41;;;;;;;4.60;4.30;;;19.60;98.10;;;;;;5082295;28;20662;-45
2021/06/25 10:54:10;;;;;;;4.67;4.27;;;19.70;97.50;;;;;;5094969;28;20206;-42
2021/06/25 10:56:39;;;;;;;5.67;5.13;;;19.80;97.20;;;;;;5105683;28;20196;-47
2021/06/25 10:59:22;;;;;;;4.70;4.40;;;19.80;97.50;;;;;;5086789;28;20197;-44
2021/06/25 11:01:52;;;;;;;5.37;4.87;;;19.90;96.50;;;;;;5083657;27;20657;-46
2021/06/25 11:04:40;;;;;;;5.90;5.30;;;19.80;97.40;;;;;;5088205;28;20209;-46
2021/06/25 11:07:09;;;;;;;5.77;4.73;;;19.80;97.10;;;;;;5098843;28;20212;-44
2021/06/25 11:09:55;;;;;;;5.10;4.60;;;20.00;98.40;;;;;;5095971;28;20252;-46
2021/06/25 11:12:23;;;;;;;6.17;5.03;;;20.20;97.80;;;;;;5102662;28;20429;-46
2021/06/25 11:14:52;;;;;;;5.40;4.90;;;20.30;97.50;;;;;;5092130;28;20203;-45
2021/06/25 11:17:48;;;;;;;5.00;4.60;;;20.30;96.90;;;;;;5074930;28;20926;-48
2021/06/25 11:20:16;;;;;;;4.13;3.80;;;20.10;95.50;;;;;;5073352;27;20698;-45
2021/06/25 11:22:43;;;;;;;4.30;3.57;;;20.10;95.80;;;;;;5100808;28;20447;-46
2021/06/25 11:25:13;;;;;;;4.50;4.20;;;20.10;95.50;;;;;;5073487;28;20197;-45
2021/06/25 11:28:19;;;;;;;3.87;3.60;;;20.10;95.60;;;;;;5099667;28;20186;-49
2021/06/25 11:31:19;;;;;;;3.50;3.20;;;20.10;95.30;;;;;;4993986;28;20270;-47
2021/06/25 11:33:54;;;;;;;4.87;4.33;;;20.30;95.40;;;;;;5013137;28;20226;-47
2021/06/25 11:36:25;;;;;;;4.63;4.23;;;20.50;95.30;;;;;;5059329;28;20228;-46
2021/06/25 11:39:00;;;;;;;5.07;4.73;;;20.40;95.10;;;;;;5097847;28;20292;-48
2021/06/25 11:41:29;;;;;;;3.90;3.60;;;20.40;94.80;;;;;;5093853;28;20435;-48
2021/06/25 11:43:56;;;;;;;4.20;3.80;;;20.60;99.30;;;;;;5101168;28;20246;-49
2021/06/25 11:46:24;;;;;;;3.97;3.67;;;20.80;93.70;;;;;;5081901;28;20196;-49
2021/06/25 11:48:58;;;;;;;4.40;3.90;;;20.70;92.50;;;;;;5095091;27;20260;-47
2021/06/25 11:51:33;;;;;;;3.80;3.13;;;20.90;93.00;;;;;;5079416;28;20787;-44
2021/06/25 11:54:02;;;;;;;4.47;4.10;;;21.10;92.60;;;;;;5101453;28;20189;-46
2021/06/25 11:56:29;;;;;;;4.90;4.50;;;21.20;91.90;;;;;;5088372;27;20194;-45
2021/06/25 11:58:57;;;;;;;4.10;3.80;;;21.20;92.70;;;;;;5098732;28;20224;-45
2021/06/25 12:01:24;;;;;;;4.60;4.20;;;21.30;92.30;;;;;;5096949;27;20243;-44
2021/06/25 12:03:50;;;;;;;4.33;3.93;;;21.30;92.00;;;;;;5094213;28;20197;-52
2021/06/25 12:06:19;;;;;;;6.13;3.57;;;21.20;92.00;;;;;;5084049;28;20205;-47
2021/06/25 12:08:57;;;;;;;6.63;4.67;;;21.00;92.70;;;;;;5104086;28;20654;-50
2021/06/25 12:11:25;;;;;;;3.57;3.27;;;21.00;91.80;;;;;;5086454;27;20252;-48
2021/06/25 12:14:00;;;;;;;3.93;3.57;;;20.90;92.10;;;;;;5097247;28;20865;-46
2021/06/25 12:16:27;;;;;;;5.20;3.57;;;21.00;92.40;;;;;;5086390;28;20516;-45
2021/06/25 12:18:54;;;;;;;4.60;4.13;;;21.00;91.90;;;;;;5097927;28;20275;-46
2021/06/25 12:21:23;;;;;;;5.70;4.20;;;21.20;91.30;;;;;;5070638;28;20430;-47
2021/06/25 12:23:54;;;;;;;4.40;3.50;;;21.30;90.90;;;;;;5094728;28;20194;-45
2021/06/25 12:26:22;;;;;;;3.90;3.60;;;21.50;90.70;;;;;;5081572;28;20377;-47
2021/06/25 12:28:49;;;;;;;3.67;3.47;;;21.60;89.30;;;;;;5085170;28;20205;-46
2021/06/25 12:31:20;;;;;;;3.17;2.97;;;21.60;88.20;;;;;;5078201;28;20631;-46
2021/06/25 12:33:47;;;;;;;3.73;3.40;;;21.50;87.80;;;;;;5087742;28;20633;-46
2021/06/25 12:36:15;;;;;;;4.03;3.60;;;21.40;87.80;;;;;;5072376;27;20209;-46
2021/06/25 12:38:46;;;;;;;3.40;3.20;;;21.50;86.70;;;;;;5094001;28;20221;-48
2021/06/25 12:41:14;;;;;;;3.10;2.67;;;21.70;87.90;;;;;;5082659;28;20691;-44
2021/06/25 12:43:42;;;;;;;4.30;3.60;;;21.90;85.70;;;;;;5092341;28;20205;-47
2021/06/25 12:46:11;;;;;;;5.87;3.90;;;22.00;83.00;;;;;;5107640;27;20224;-45
2021/06/25 12:48:40;;;;;;;3.80;3.50;;;22.10;81.40;;;;;;5092640;27;20189;-46
2021/06/25 12:51:10;;;;;;;3.40;3.10;;;22.40;84.00;;;;;;5090318;27;20220;-46
2021/06/25 12:53:38;;;;;;;3.15;2.83;;;23.10;91.80;;;;;;5081812;27;20203;-46
2021/06/25 12:56:09;;;;;;;3.27;3.03;;;23.40;80.00;;;;;;5096108;28;20237;-45
2021/06/25 12:58:40;;;;;;;4.63;2.90;;;23.70;75.00;;;;;;5085406;27;20249;-49
2021/06/25 13:01:08;;;;;;;3.28;3.03;;;23.70;74.50;;;;;;5101072;27;20582;-48